Time;durP1;ratioP1;P1;durP2;ratioP2;P2;SDS_P1;SDS_P2;PMS_P1;PMS_P2;Temp;Humidity;BMP_temperature;BMP_pressure;BME280_temperature;BME280_humidity;BME280_pressure;Samples;Min_cycle;Max_cycle;Signal;HPM_P1;HPM_P2
2022/12/26 00:00:42;;;;;;;5.83;3.30;;;12.20;99.90;;;;;;10430321;28;20230;-71
2022/12/26 00:05:42;;;;;;;6.07;2.93;;;12.20;99.90;;;;;;10425580;28;20222;-69
2022/12/26 00:10:43;;;;;;;4.50;3.13;;;12.20;99.90;;;;;;10428485;28;20220;-69
2022/12/26 00:15:44;;;;;;;4.10;3.23;;;12.20;99.90;;;;;;10425574;28;20312;-69
2022/12/26 00:20:44;;;;;;;4.50;3.00;;;12.20;99.90;;;;;;10429380;28;20242;-68
2022/12/26 00:25:45;;;;;;;5.93;3.20;;;12.10;99.90;;;;;;10433134;28;20229;-69
2022/12/26 00:30:45;;;;;;;4.50;3.23;;;12.10;99.90;;;;;;10456261;28;20220;-69
2022/12/26 00:35:46;;;;;;;4.73;3.00;;;12.10;99.90;;;;;;10435883;28;20837;-69
2022/12/26 00:40:46;;;;;;;5.60;3.87;;;12.10;99.90;;;;;;10436736;28;20238;-69
2022/12/26 00:45:47;;;;;;;5.53;3.03;;;12.00;99.90;;;;;;10433097;28;20241;-69
2022/12/26 00:50:48;;;;;;;4.73;3.10;;;12.00;99.90;;;;;;10436187;28;20234;-69
2022/12/26 00:55:49;;;;;;;5.40;3.07;;;12.00;99.90;;;;;;10441412;28;20226;-69
2022/12/26 01:00:50;;;;;;;3.57;2.87;;;12.00;99.90;;;;;;10432926;28;20227;-69
2022/12/26 01:05:51;;;;;;;4.50;2.90;;;12.00;99.90;;;;;;10417804;28;20306;-70
2022/12/26 01:10:52;;;;;;;5.10;3.03;;;12.00;99.90;;;;;;10395589;28;20742;-70
2022/12/26 01:15:53;;;;;;;3.23;2.90;;;12.00;99.90;;;;;;10442485;28;20222;-69
2022/12/26 01:21:01;;;;;;;5.57;3.20;;;12.00;99.90;;;;;;10429464;28;20226;-68
2022/12/26 01:26:04;;;;;;;4.57;2.87;;;12.10;99.90;;;;;;10415447;28;20230;-68
2022/12/26 01:31:05;;;;;;;5.03;3.10;;;12.10;99.90;;;;;;10416768;28;20218;-68
2022/12/26 01:36:06;;;;;;;7.33;3.27;;;12.10;99.90;;;;;;10431655;28;20215;-69
2022/12/26 01:41:16;;;;;;;4.47;3.00;;;12.00;99.90;;;;;;10424252;28;20216;-69
2022/12/26 01:46:20;;;;;;;3.50;2.77;;;12.00;99.90;;;;;;10435970;28;20732;-69
2022/12/26 01:51:24;;;;;;;5.27;3.10;;;12.10;99.90;;;;;;10412324;28;20710;-69
2022/12/26 01:56:36;;;;;;;3.70;2.80;;;12.10;99.90;;;;;;10436337;28;20220;-69
2022/12/26 02:01:40;;;;;;;6.43;2.90;;;12.20;99.90;;;;;;10437846;28;20575;-69
2022/12/26 02:06:41;;;;;;;4.73;2.97;;;12.20;99.90;;;;;;10430043;28;20217;-69
2022/12/26 02:11:48;;;;;;;3.87;3.03;;;12.20;99.90;;;;;;10434678;28;20226;-68
2022/12/26 02:16:49;;;;;;;5.90;3.20;;;12.20;99.90;;;;;;10430752;28;20242;-69
2022/12/26 02:22:00;;;;;;;6.37;3.00;;;12.20;99.90;;;;;;10439461;28;20224;-69
2022/12/26 02:27:12;;;;;;;3.17;2.67;;;12.20;99.90;;;;;;10413597;28;20291;-69
2022/12/26 02:32:52;;;;;;;4.50;3.07;;;12.30;99.90;;;;;;10416664;28;20260;-68
2022/12/26 02:38:12;;;;;;;5.43;2.90;;;12.20;99.90;;;;;;10404469;28;20296;-68
2022/12/26 02:43:40;;;;;;;3.80;2.93;;;12.10;99.90;;;;;;10423100;28;20228;-69
2022/12/26 02:48:46;;;;;;;5.50;3.10;;;12.10;99.90;;;;;;10427818;28;20635;-69
2022/12/26 03:21:20;;;;;;;4.47;3.00;;;12.00;99.90;;;;;;10428030;28;20222;-70
2022/12/26 03:26:39;;;;;;;3.67;2.83;;;12.00;99.90;;;;;;10414728;28;20221;-69
2022/12/26 03:31:39;;;;;;;4.93;3.00;;;12.00;99.90;;;;;;10408527;28;20223;-70
2022/12/26 03:37:17;;;;;;;4.33;3.10;;;12.00;99.90;;;;;;10414013;28;20222;-69
2022/12/26 04:53:44;;;;;;;4.17;2.73;;;11.60;99.90;;;;;;10424965;28;20251;-70
2022/12/26 04:58:44;;;;;;;7.30;2.63;;;11.70;99.90;;;;;;10429017;28;20246;-69
2022/12/26 05:14:23;;;;;;;3.47;2.73;;;11.80;99.90;;;;;;10431160;28;20705;-69
2022/12/26 05:30:03;;;;;;;3.97;2.90;;;11.90;99.90;;;;;;10432644;28;20596;-70
2022/12/26 05:35:04;;;;;;;5.23;2.73;;;12.00;99.90;;;;;;10433675;28;20255;-70
2022/12/26 05:40:05;;;;;;;5.37;2.80;;;12.00;99.90;;;;;;10419865;28;20231;-70
2022/12/26 05:45:06;;;;;;;6.17;2.50;;;12.00;99.90;;;;;;10437862;28;20224;-69
2022/12/26 05:50:07;;;;;;;4.00;2.90;;;12.00;99.90;;;;;;10431815;28;20246;-69
2022/12/26 05:55:08;;;;;;;6.67;3.00;;;12.00;99.90;;;;;;10436687;28;20270;-69
2022/12/26 06:00:09;;;;;;;2.47;2.13;;;11.90;99.90;;;;;;10415824;28;20320;-69
2022/12/26 06:05:10;;;;;;;3.03;2.50;;;12.00;99.90;;;;;;10431104;28;20231;-69
2022/12/26 06:10:10;;;;;;;4.97;2.60;;;12.00;99.90;;;;;;10433504;28;20174;-68
2022/12/26 06:15:11;;;;;;;4.60;2.73;;;12.00;99.90;;;;;;10430737;28;20188;-70
2022/12/26 06:20:12;;;;;;;3.57;2.60;;;12.10;99.90;;;;;;10432689;28;20723;-68
2022/12/26 06:25:12;;;;;;;5.63;2.60;;;12.10;99.90;;;;;;10437716;28;20222;-70
2022/12/26 06:30:13;;;;;;;6.53;2.70;;;12.10;99.90;;;;;;10414953;28;20269;-69
2022/12/26 06:35:14;;;;;;;4.00;2.53;;;12.10;99.90;;;;;;10472945;28;20190;-70
2022/12/26 06:40:17;;;;;;;3.90;2.47;;;12.10;99.90;;;;;;10437197;28;20192;-69
2022/12/26 06:45:18;;;;;;;7.20;2.80;;;12.10;99.90;;;;;;10428062;28;20301;-70
2022/12/26 06:50:20;;;;;;;4.43;2.40;;;12.10;99.90;;;;;;10432685;28;20702;-69
2022/12/26 06:55:21;;;;;;;4.83;2.97;;;12.00;99.90;;;;;;10426036;28;20274;-68
2022/12/26 07:00:21;;;;;;;3.53;3.03;;;12.00;99.90;;;;;;10432606;28;20244;-71
2022/12/26 07:05:22;;;;;;;4.50;2.80;;;11.90;99.90;;;;;;10426455;28;20200;-68
2022/12/26 07:10:22;;;;;;;3.87;2.50;;;11.80;99.90;;;;;;10422008;28;20579;-68
2022/12/26 07:15:23;;;;;;;6.47;3.10;;;11.80;99.90;;;;;;10434046;28;20188;-69
2022/12/26 07:20:23;;;;;;;3.67;2.70;;;11.80;99.90;;;;;;10414088;28;20197;-69
2022/12/26 07:25:24;;;;;;;5.70;2.60;;;11.80;99.90;;;;;;10425421;28;22619;-69
2022/12/26 07:30:25;;;;;;;4.63;2.90;;;11.80;99.90;;;;;;10431742;28;20233;-70
2022/12/26 07:35:26;;;;;;;5.33;2.50;;;11.80;99.90;;;;;;10435099;28;20218;-69
2022/12/26 07:40:28;;;;;;;3.57;2.50;;;11.80;99.90;;;;;;10432261;28;20639;-69
2022/12/26 07:45:28;;;;;;;2.60;2.20;;;11.90;99.90;;;;;;10426336;28;20231;-69
2022/12/26 07:50:29;;;;;;;5.10;2.40;;;11.80;99.90;;;;;;10432130;28;20224;-69
2022/12/26 07:55:29;;;;;;;4.60;2.67;;;11.90;99.90;;;;;;10431743;28;20230;-71
2022/12/26 08:00:30;;;;;;;3.63;2.63;;;11.90;99.90;;;;;;10424017;28;20250;-70
2022/12/26 08:05:30;;;;;;;4.13;2.63;;;12.00;99.90;;;;;;10414503;28;20840;-70
2022/12/26 08:10:31;;;;;;;4.70;2.70;;;11.90;99.90;;;;;;10431700;28;20223;-69
2022/12/26 08:15:32;;;;;;;4.30;2.83;;;11.90;99.90;;;;;;10423801;28;20222;-70
2022/12/26 08:20:33;;;;;;;7.40;2.97;;;11.80;99.90;;;;;;10413351;28;20234;-68
2022/12/26 08:25:33;;;;;;;3.70;2.50;;;11.80;99.90;;;;;;10423832;28;20633;-69
2022/12/26 08:30:34;;;;;;;5.07;2.83;;;11.70;99.90;;;;;;10441003;28;20221;-70
2022/12/26 08:35:36;;;;;;;2.93;2.43;;;11.70;99.90;;;;;;10430413;28;20223;-69
2022/12/26 08:40:36;;;;;;;3.60;2.57;;;11.70;99.90;;;;;;10414986;28;20208;-70
2022/12/26 08:45:37;;;;;;;3.60;2.70;;;11.70;99.90;;;;;;10439255;28;20236;-69
2022/12/26 08:50:38;;;;;;;4.80;2.53;;;11.70;99.90;;;;;;10420468;28;20602;-71
2022/12/26 08:55:39;;;;;;;5.03;2.53;;;11.70;99.90;;;;;;10414122;28;20223;-70
2022/12/26 09:00:40;;;;;;;4.33;2.43;;;11.70;99.90;;;;;;10436999;28;20213;-70
2022/12/26 09:05:41;;;;;;;4.43;2.37;;;11.70;99.90;;;;;;10439169;28;20721;-70
2022/12/26 09:10:41;;;;;;;5.47;2.37;;;11.80;99.90;;;;;;10436295;28;20280;-69
2022/12/26 09:15:42;;;;;;;3.90;2.50;;;11.80;99.90;;;;;;10437211;28;20227;-69
2022/12/26 09:20:42;;;;;;;2.53;2.33;;;11.70;99.90;;;;;;10431090;28;20229;-68
2022/12/26 09:25:43;;;;;;;3.60;2.40;;;11.80;99.90;;;;;;10435789;28;20597;-70
2022/12/26 09:30:43;;;;;;;3.50;2.27;;;11.80;99.90;;;;;;10440193;28;20235;-69
2022/12/26 09:35:44;;;;;;;3.60;2.37;;;11.80;99.90;;;;;;10431482;28;20314;-69
2022/12/26 09:40:57;;;;;;;2.80;2.20;;;11.90;99.90;;;;;;10436025;28;20221;-70
2022/12/26 09:46:10;;;;;;;4.53;2.00;;;11.90;99.90;;;;;;10439697;28;20233;-69
2022/12/26 09:51:10;;;;;;;3.07;1.83;;;12.00;99.90;;;;;;10430802;28;20651;-69
2022/12/26 09:56:14;;;;;;;3.83;1.90;;;12.00;99.90;;;;;;10432068;28;20221;-70
2022/12/26 10:01:25;;;;;;;3.80;1.90;;;12.10;99.90;;;;;;10412769;28;20231;-70
2022/12/26 10:07:06;;;;;;;2.67;1.70;;;12.10;99.90;;;;;;10435034;28;20238;-70
2022/12/26 10:12:19;;;;;;;2.73;1.80;;;12.10;99.90;;;;;;10389822;28;20277;-69
2022/12/26 10:17:30;;;;;;;4.17;1.77;;;12.10;99.90;;;;;;10434369;28;20312;-70
2022/12/26 10:22:51;;;;;;;3.77;2.10;;;12.10;99.90;;;;;;10429364;28;20254;-68
2022/12/26 10:27:51;;;;;;;4.97;1.90;;;12.10;99.90;;;;;;10441035;28;20219;-69
2022/12/26 10:33:01;;;;;;;3.10;1.87;;;12.10;99.90;;;;;;10432529;28;20273;-69
2022/12/26 10:38:17;;;;;;;1.80;1.70;;;12.20;99.90;;;;;;10421326;28;20228;-69
2022/12/26 10:43:27;;;;;;;6.03;2.00;;;12.30;99.90;;;;;;10428656;28;20253;-68
2022/12/26 10:48:28;;;;;;;2.67;1.50;;;12.30;99.90;;;;;;10448759;28;20579;-70
2022/12/26 10:53:29;;;;;;;4.17;1.80;;;12.30;99.90;;;;;;10426652;28;20314;-70
2022/12/26 10:58:33;;;;;;;1.90;1.70;;;12.20;99.90;;;;;;10434207;28;20248;-69
2022/12/26 11:03:33;;;;;;;2.87;1.87;;;12.00;99.90;;;;;;10424977;28;20218;-70
2022/12/26 11:08:38;;;;;;;5.67;2.23;;;11.90;99.90;;;;;;10432077;28;20225;-69
2022/12/26 11:13:47;;;;;;;1.63;1.53;;;11.80;99.90;;;;;;10421681;28;20216;-70
2022/12/26 11:18:50;;;;;;;2.93;1.90;;;11.90;99.90;;;;;;10431475;28;20222;-68
2022/12/26 11:24:14;;;;;;;2.33;1.50;;;12.10;99.90;;;;;;10428312;28;20609;-68
2022/12/26 11:29:16;;;;;;;2.90;1.40;;;12.20;99.90;;;;;;10428008;28;20230;-69
2022/12/26 11:34:24;;;;;;;2.30;1.53;;;12.30;99.90;;;;;;10431884;28;20230;-70
2022/12/26 11:39:36;;;;;;;2.07;1.40;;;12.40;99.90;;;;;;10436171;28;20730;-70
2022/12/26 11:44:40;;;;;;;1.33;1.20;;;12.60;99.90;;;;;;10432756;28;20231;-70
2022/12/26 11:50:01;;;;;;;1.93;1.53;;;12.60;99.90;;;;;;10425980;28;20231;-70
2022/12/26 11:55:22;;;;;;;2.13;1.33;;;12.50;99.90;;;;;;10432741;28;20217;-69
2022/12/26 12:00:24;;;;;;;2.43;1.60;;;12.40;99.90;;;;;;10432367;28;20824;-70
2022/12/26 12:05:44;;;;;;;3.57;1.33;;;12.20;99.90;;;;;;10424886;28;20235;-69
2022/12/26 12:11:09;;;;;;;2.77;1.30;;;12.20;99.90;;;;;;10425593;28;20750;-69
2022/12/26 12:16:28;;;;;;;1.53;1.40;;;12.30;99.90;;;;;;10423734;28;20232;-69
2022/12/26 12:22:06;;;;;;;1.40;1.30;;;12.50;99.90;;;;;;10423175;28;20277;-69
2022/12/26 12:27:13;;;;;;;3.93;1.67;;;12.60;99.90;;;;;;10428120;28;20219;-69
2022/12/26 12:32:17;;;;;;;1.70;1.30;;;12.70;99.90;;;;;;10431919;28;20218;-70
2022/12/26 12:37:23;;;;;;;2.27;1.63;;;12.70;99.90;;;;;;10425099;28;20624;-69
2022/12/26 12:42:55;;;;;;;1.57;1.47;;;12.70;99.90;;;;;;10443593;28;20234;-70
2022/12/26 12:48:11;;;;;;;1.57;1.40;;;12.60;99.90;;;;;;10435471;28;20221;-69
2022/12/26 12:53:26;;;;;;;2.13;1.43;;;12.50;99.90;;;;;;10413784;28;20821;-70
2022/12/26 12:58:45;;;;;;;2.07;1.40;;;12.50;99.90;;;;;;10412534;28;20253;-69
2022/12/26 13:04:03;;;;;;;2.93;1.20;;;12.50;99.90;;;;;;10431111;28;20222;-69
2022/12/26 13:09:19;;;;;;;3.00;1.60;;;12.50;99.90;;;;;;10433278;28;20298;-70
2022/12/26 13:14:25;;;;;;;1.43;1.00;;;12.40;99.90;;;;;;10423373;28;20307;-70
2022/12/26 13:19:50;;;;;;;2.90;1.50;;;12.40;99.90;;;;;;10429354;28;20260;-70
2022/12/26 13:24:58;;;;;;;1.50;1.20;;;12.50;99.90;;;;;;10424259;28;20233;-69
2022/12/26 13:29:59;;;;;;;3.53;1.60;;;12.50;99.90;;;;;;10410942;28;20245;-71
2022/12/26 13:35:03;;;;;;;2.67;1.67;;;12.50;99.90;;;;;;10432425;28;20275;-70
2022/12/26 13:40:10;;;;;;;1.73;1.27;;;12.40;99.90;;;;;;10432820;28;20224;-69
2022/12/26 13:45:38;;;;;;;3.23;1.47;;;12.50;99.90;;;;;;10428386;28;20231;-69
2022/12/26 13:50:56;;;;;;;2.23;1.17;;;12.50;99.90;;;;;;10435160;28;20303;-70
2022/12/26 13:56:12;;;;;;;3.73;1.20;;;12.50;99.90;;;;;;10413944;28;20685;-70
2022/12/26 14:01:18;;;;;;;3.63;1.23;;;12.50;99.90;;;;;;10413202;28;20767;-70
2022/12/26 14:06:25;;;;;;;1.13;1.00;;;12.50;99.90;;;;;;10434913;28;20226;-70
2022/12/26 14:11:32;;;;;;;2.50;1.20;;;12.50;99.90;;;;;;10427817;28;20228;-70
2022/12/26 14:16:53;;;;;;;2.40;1.20;;;12.40;99.90;;;;;;10426833;28;20234;-69
2022/12/26 14:22:06;;;;;;;2.43;1.13;;;12.40;99.90;;;;;;10432776;28;20226;-70
2022/12/26 14:27:24;;;;;;;3.20;1.50;;;12.40;99.90;;;;;;10414679;28;20261;-69
2022/12/26 14:32:52;;;;;;;1.60;1.30;;;12.30;99.90;;;;;;10428360;28;20223;-70
2022/12/26 14:38:17;;;;;;;3.23;1.40;;;12.30;99.90;;;;;;10430042;28;20693;-70
2022/12/26 14:43:32;;;;;;;1.57;1.10;;;12.30;99.90;;;;;;10447116;28;20228;-69
2022/12/26 14:48:32;;;;;;;1.93;1.13;;;12.20;99.90;;;;;;10408631;28;20639;-69
2022/12/26 14:53:33;;;;;;;3.10;1.27;;;12.20;99.90;;;;;;10442247;28;20231;-69
2022/12/26 14:58:44;;;;;;;3.77;1.10;;;12.10;99.90;;;;;;10431461;28;20302;-69
2022/12/26 15:04:15;;;;;;;3.00;1.10;;;12.10;99.90;;;;;;10413773;28;20709;-69
2022/12/26 15:09:40;;;;;;;2.57;1.23;;;12.00;99.90;;;;;;10436227;28;20718;-69
2022/12/26 15:14:56;;;;;;;2.60;1.10;;;11.90;99.90;;;;;;10426521;28;20239;-70
2022/12/26 15:20:16;;;;;;;3.47;1.37;;;11.90;99.90;;;;;;10431798;28;20223;-71
2022/12/26 15:25:41;;;;;;;2.60;1.23;;;11.80;99.90;;;;;;10431141;28;20226;-70
2022/12/26 15:31:01;;;;;;;1.73;0.90;;;11.80;99.90;;;;;;10424577;28;20219;-71
2022/12/26 15:36:21;;;;;;;3.90;0.90;;;11.80;99.90;;;;;;10428603;28;20223;-71
2022/12/26 15:41:25;;;;;;;3.80;1.13;;;11.70;99.90;;;;;;10435026;28;20242;-70
2022/12/26 15:46:30;;;;;;;4.03;1.00;;;11.70;99.90;;;;;;10432984;28;20765;-70
2022/12/26 15:51:31;;;;;;;3.07;1.40;;;11.60;99.90;;;;;;10431914;28;20231;-69
2022/12/26 15:56:59;;;;;;;2.50;0.70;;;11.60;99.90;;;;;;10422408;28;20225;-70
2022/12/26 16:02:00;;;;;;;1.50;0.50;;;11.50;99.90;;;;;;10427834;28;20219;-70
2022/12/26 16:07:16;;;;;;;2.20;0.63;;;11.10;99.90;;;;;;10428402;28;20692;-69
2022/12/26 16:12:24;;;;;;;2.50;0.50;;;10.70;99.90;;;;;;10430342;28;20233;-70
2022/12/26 16:17:26;;;;;;;0.30;0.30;;;10.50;99.90;;;;;;10424127;28;20223;-71
2022/12/26 16:22:43;;;;;;;1.50;0.60;;;10.40;99.90;;;;;;10430296;28;20226;-69
2022/12/26 16:27:45;;;;;;;0.80;0.40;;;10.40;99.90;;;;;;10424372;28;20214;-68
2022/12/26 16:32:46;;;;;;;0.70;0.40;;;10.10;99.90;;;;;;10427354;28;20221;-69
2022/12/26 16:37:48;;;;;;;1.10;0.40;;;9.90;99.90;;;;;;10424972;28;20302;-69
2022/12/26 16:43:25;;;;;;;3.27;0.50;;;9.60;99.90;;;;;;10431047;28;20226;-69
2022/12/26 16:48:29;;;;;;;1.03;0.57;;;9.40;99.90;;;;;;10300164;28;20222;-69
2022/12/26 16:53:35;;;;;;;2.77;0.57;;;9.10;99.90;;;;;;10419630;28;20755;-69
2022/12/26 16:58:36;;;;;;;5.83;1.03;;;8.90;99.90;;;;;;10422849;28;20358;-69
2022/12/26 17:03:57;;;;;;;3.30;0.73;;;8.80;99.90;;;;;;10429637;28;20243;-68
2022/12/26 17:09:07;;;;;;;2.40;0.80;;;8.70;99.90;;;;;;10437849;28;20215;-69
2022/12/26 17:14:18;;;;;;;3.27;0.90;;;8.70;99.90;;;;;;10438840;28;20221;-69
2022/12/26 17:19:25;;;;;;;1.00;0.83;;;8.70;99.90;;;;;;10431562;28;20251;-68
2022/12/26 17:24:26;;;;;;;2.20;1.00;;;8.60;99.90;;;;;;10435800;28;20694;-70
2022/12/26 17:29:57;;;;;;;1.40;0.80;;;8.60;99.90;;;;;;10429593;28;20217;-70
2022/12/26 17:35:09;;;;;;;4.93;0.90;;;8.60;99.90;;;;;;10432722;28;20250;-70
2022/12/26 17:40:13;;;;;;;1.67;1.00;;;8.60;99.90;;;;;;10431652;28;20219;-69
2022/12/26 17:45:22;;;;;;;1.20;0.87;;;8.70;99.90;;;;;;10434259;28;20210;-68
2022/12/26 17:50:28;;;;;;;5.07;1.20;;;8.70;99.90;;;;;;10430968;28;20234;-68
2022/12/26 17:55:29;;;;;;;1.93;0.87;;;8.60;99.90;;;;;;10442901;28;20220;-71
2022/12/26 18:00:31;;;;;;;2.10;1.23;;;8.60;99.90;;;;;;10417871;28;20318;-69
2022/12/26 18:05:32;;;;;;;3.47;1.60;;;8.60;99.90;;;;;;10435712;28;20722;-69
2022/12/26 18:10:35;;;;;;;4.00;1.33;;;8.50;99.90;;;;;;10426021;28;20218;-69
2022/12/26 18:15:35;;;;;;;4.03;1.10;;;8.50;99.90;;;;;;10434199;28;20226;-68
2022/12/26 18:20:36;;;;;;;1.93;0.80;;;8.50;99.90;;;;;;10427501;28;20251;-69
2022/12/26 18:25:37;;;;;;;2.83;1.30;;;8.40;99.90;;;;;;10416610;28;20224;-69
2022/12/26 18:30:37;;;;;;;3.13;1.23;;;8.40;99.90;;;;;;10427351;28;20702;-68
2022/12/26 18:35:40;;;;;;;3.57;1.40;;;8.40;99.90;;;;;;10423656;28;20266;-70
2022/12/26 18:40:45;;;;;;;3.00;1.33;;;8.30;99.90;;;;;;10427206;28;20299;-70
2022/12/26 18:45:46;;;;;;;1.57;0.90;;;8.30;99.90;;;;;;10446876;28;20294;-69
2022/12/26 18:50:47;;;;;;;2.27;0.83;;;8.10;99.90;;;;;;10435111;28;20225;-69
2022/12/26 18:55:47;;;;;;;1.80;0.80;;;8.10;99.90;;;;;;10431831;28;20288;-68
2022/12/26 19:00:48;;;;;;;2.97;1.67;;;8.10;99.90;;;;;;10427658;28;20790;-68
2022/12/26 19:05:48;;;;;;;1.00;0.70;;;8.10;99.90;;;;;;10431077;28;20227;-69
2022/12/26 19:10:49;;;;;;;1.13;0.87;;;8.20;99.90;;;;;;10427093;28;20225;-68
2022/12/26 19:15:50;;;;;;;1.27;0.90;;;8.30;99.90;;;;;;10441955;28;20459;-69
2022/12/26 19:20:50;;;;;;;2.20;0.90;;;8.20;99.90;;;;;;10426616;28;20216;-70
2022/12/26 19:25:51;;;;;;;2.40;1.03;;;8.20;99.90;;;;;;10429651;28;20293;-69
2022/12/26 19:30:51;;;;;;;1.37;0.90;;;8.20;99.90;;;;;;10426180;28;20256;-69
2022/12/26 19:35:55;;;;;;;2.60;0.70;;;8.30;99.90;;;;;;10429051;28;20260;-69
2022/12/26 19:41:07;;;;;;;1.60;0.70;;;8.40;99.90;;;;;;10426478;28;20223;-69
2022/12/26 19:46:11;;;;;;;0.80;0.67;;;8.40;99.90;;;;;;10426780;28;20233;-69
2022/12/26 19:51:13;;;;;;;0.93;0.70;;;8.50;99.90;;;;;;10427948;28;20759;-69
2022/12/26 19:56:25;;;;;;;2.00;0.60;;;8.50;99.90;;;;;;10425887;28;20259;-69
2022/12/26 20:01:30;;;;;;;0.40;0.40;;;8.60;99.90;;;;;;10420915;28;20224;-69
2022/12/26 20:06:33;;;;;;;1.33;0.60;;;8.50;99.90;;;;;;10431800;28;20247;-69
2022/12/26 20:11:37;;;;;;;0.70;0.70;;;8.50;99.90;;;;;;10406217;28;20235;-68
2022/12/26 20:16:38;;;;;;;1.70;0.73;;;8.50;99.90;;;;;;10413021;28;20716;-69
2022/12/26 20:21:38;;;;;;;3.47;0.90;;;8.60;99.90;;;;;;10424328;28;20253;-69
2022/12/26 20:26:43;;;;;;;1.63;0.67;;;8.60;99.90;;;;;;10413300;28;20232;-69
2022/12/26 20:31:43;;;;;;;3.27;0.70;;;8.50;99.90;;;;;;10407239;28;20341;-70
2022/12/26 20:36:44;;;;;;;0.60;0.50;;;8.50;99.90;;;;;;10434537;28;20289;-69
2022/12/26 20:41:45;;;;;;;0.43;0.43;;;8.50;99.90;;;;;;10435638;28;20678;-69
2022/12/26 20:46:46;;;;;;;0.70;0.40;;;8.50;99.90;;;;;;10448150;28;20251;-69
2022/12/26 20:51:46;;;;;;;0.53;0.50;;;8.40;99.90;;;;;;10440746;28;20709;-69
2022/12/26 20:56:47;;;;;;;4.00;0.63;;;8.30;99.90;;;;;;10432725;28;20231;-69
2022/12/26 21:01:47;;;;;;;2.97;0.87;;;8.30;99.90;;;;;;10436711;28;20727;-69
2022/12/26 21:06:49;;;;;;;2.10;0.70;;;8.10;99.90;;;;;;10419089;28;20233;-69
2022/12/26 21:11:49;;;;;;;3.87;0.70;;;7.80;99.90;;;;;;10435725;28;20269;-69
2022/12/26 21:16:55;;;;;;;1.67;0.63;;;7.50;99.90;;;;;;10414859;28;20221;-70
2022/12/26 21:21:56;;;;;;;3.07;0.97;;;7.30;99.90;;;;;;10435158;28;20229;-70
2022/12/26 21:26:57;;;;;;;5.20;0.80;;;7.10;99.90;;;;;;10438176;28;20232;-69
2022/12/26 21:31:59;;;;;;;2.53;0.80;;;6.90;99.90;;;;;;10416361;28;20775;-70
2022/12/26 21:42:19;;;;;;;1.27;0.80;;;6.70;99.90;;;;;;10438283;28;20311;-69
2022/12/26 21:47:20;;;;;;;2.67;0.90;;;6.50;99.90;;;;;;10417455;28;20314;-69
2022/12/26 21:52:20;;;;;;;1.00;0.70;;;6.40;99.90;;;;;;10421436;28;20703;-69
2022/12/26 21:57:22;;;;;;;1.47;0.80;;;6.30;99.90;;;;;;10430631;28;20228;-70
2022/12/26 22:07:44;;;;;;;4.17;1.07;;;6.30;99.90;;;;;;10436920;28;20222;-69
2022/12/26 22:12:57;;;;;;;1.93;0.80;;;6.10;99.90;;;;;;10437119;28;20605;-69
2022/12/26 22:17:57;;;;;;;2.97;1.07;;;6.00;99.90;;;;;;10428096;28;20223;-70
2022/12/26 22:22:58;;;;;;;2.23;1.00;;;6.00;99.90;;;;;;10432971;28;20220;-70
2022/12/26 22:27:59;;;;;;;2.30;1.40;;;5.90;99.90;;;;;;10431710;28;20592;-69
2022/12/26 22:32:59;;;;;;;3.73;1.10;;;5.80;99.90;;;;;;10432521;28;20224;-69
2022/12/26 22:38:00;;;;;;;3.83;1.30;;;5.80;99.90;;;;;;10431947;28;20265;-69
2022/12/26 22:43:00;;;;;;;5.07;1.30;;;5.70;99.90;;;;;;10442593;28;20219;-69
2022/12/26 22:48:01;;;;;;;2.73;1.03;;;5.50;99.90;;;;;;10449179;28;20215;-68
2022/12/26 22:53:01;;;;;;;2.93;1.23;;;5.50;99.90;;;;;;10426839;28;20768;-69
2022/12/26 22:58:02;;;;;;;3.70;1.13;;;5.40;99.90;;;;;;10430700;28;20217;-69
2022/12/26 23:03:03;;;;;;;3.97;1.47;;;5.40;99.90;;;;;;10436202;28;20216;-69
2022/12/26 23:08:04;;;;;;;4.17;1.53;;;5.40;99.90;;;;;;10412267;28;20220;-69
2022/12/26 23:13:05;;;;;;;1.70;1.30;;;5.30;99.90;;;;;;10412083;28;20216;-68
2022/12/26 23:24:19;;;;;;;2.93;1.10;;;5.20;99.90;;;;;;10430252;28;20231;-68
2022/12/26 23:34:41;;;;;;;3.90;1.63;;;5.10;99.90;;;;;;10468276;28;20215;-70
2022/12/26 23:39:42;;;;;;;5.50;1.50;;;5.10;99.90;;;;;;10473290;28;20216;-70
2022/12/26 23:44:42;;;;;;;5.10;1.77;;;5.00;99.90;;;;;;10467549;28;20790;-71
2022/12/26 23:49:43;;;;;;;2.40;1.70;;;4.90;99.90;;;;;;10472630;28;20258;-68
2022/12/26 23:54:43;;;;;;;5.93;1.90;;;4.80;99.90;;;;;;10467382;28;20223;-69
2022/12/26 23:59:45;;;;;;;2.73;1.80;;;4.80;99.90;;;;;;10495302;28;20211;-68
